Alexander, Kansas
Current Conditions -  °F | °C
As of 11:35 PM on Saturday 20 Dec 2014 (Local Time) from KHYS Reporting Station
Clear Clear  
Wind Chill: 34°   Ceiling: Unl
Heat Index: 34°   Visibility: 5mi
Dew Point: 25°   Wind: 3mph
Humidity: 70%   Direction: 210°SSW
Pressure: 29.99"   Gusts: NA
Location:  38.47°N, 99.55°W
Report Text: KHYS 210535Z AUTO 21003KT 5SM CLR 01/M04 A2999 RMK AO1
Loading
Personal Weather Stations






























Interactive Weather Map New forecast layout! Learn more

10-Day Weather Forecast

Advertisements
Track Severe Weather on mobile